Time;durP1;ratioP1;P1;durP2;ratioP2;P2;SDS_P1;SDS_P2;PMS_P1;PMS_P2;Temp;Humidity;BMP_temperature;BMP_pressure;BME280_temperature;BME280_humidity;BME280_pressure;Samples;Min_cycle;Max_cycle;Signal;HPM_P1;HPM_P2
2022/02/13 00:00:13;;;;;;;20.15;13.30;;;0.00;99.90;;;;;;4991305;28;20074;-76
2022/02/13 00:02:40;;;;;;;17.73;12.00;;;0.10;99.90;;;;;;4990723;28;20019;-75
2022/02/13 00:05:07;;;;;;;18.55;11.52;;;0.10;99.90;;;;;;4991081;28;20023;-75
2022/02/13 00:07:33;;;;;;;16.38;11.45;;;0.00;99.90;;;;;;4992589;28;20471;-74
2022/02/13 00:09:59;;;;;;;18.70;11.55;;;0.10;99.90;;;;;;4992960;28;20037;-74
2022/02/13 00:12:25;;;;;;;20.48;13.30;;;0.10;99.90;;;;;;4991995;28;20083;-75
2022/02/13 00:14:53;;;;;;;17.80;10.95;;;0.00;99.90;;;;;;4983714;28;20027;-74
2022/02/13 00:17:19;;;;;;;15.00;10.88;;;-0.10;99.90;;;;;;4975227;28;20430;-76
2022/02/13 00:19:46;;;;;;;17.60;10.25;;;0.00;99.90;;;;;;4973097;28;20050;-75
2022/02/13 00:22:12;;;;;;;12.85;10.30;;;0.00;99.90;;;;;;4975735;28;20031;-75
2022/02/13 00:24:37;;;;;;;13.23;10.00;;;0.10;99.90;;;;;;4979364;28;20030;-75
2022/02/13 00:27:03;;;;;;;13.00;10.45;;;0.30;99.90;;;;;;4982953;28;20110;-75
2022/02/13 00:29:29;;;;;;;16.23;11.07;;;0.40;99.90;;;;;;4990548;28;20034;-75
2022/02/13 00:31:54;;;;;;;15.43;10.05;;;0.40;99.90;;;;;;4994743;28;20022;-77
2022/02/13 00:34:20;;;;;;;13.45;9.88;;;0.20;99.90;;;;;;4989446;28;20039;-74
2022/02/13 00:36:45;;;;;;;11.52;9.45;;;0.20;99.90;;;;;;4990844;28;20019;-75
2022/02/13 00:39:11;;;;;;;12.02;9.52;;;0.10;99.90;;;;;;4989153;28;20031;-73
2022/02/13 00:41:36;;;;;;;13.85;9.45;;;0.10;99.90;;;;;;4977676;28;20019;-76
2022/02/13 00:44:02;;;;;;;18.77;10.25;;;0.20;99.90;;;;;;4968129;28;20061;-76
2022/02/13 00:46:28;;;;;;;14.80;10.35;;;0.30;99.90;;;;;;4974810;28;20023;-76
2022/02/13 00:48:54;;;;;;;10.95;9.68;;;0.20;99.90;;;;;;4978120;28;20069;-75
2022/02/13 00:51:20;;;;;;;13.20;9.68;;;0.30;99.90;;;;;;4975574;28;20081;-75
2022/02/13 00:53:46;;;;;;;15.55;10.75;;;0.30;99.90;;;;;;4974730;28;20496;-75
2022/02/13 00:56:12;;;;;;;12.43;9.82;;;0.40;99.90;;;;;;4979884;28;20047;-75
2022/02/13 00:58:38;;;;;;;15.73;10.25;;;0.50;99.90;;;;;;4975813;28;20484;-75
2022/02/13 01:01:04;;;;;;;15.05;10.80;;;0.40;99.90;;;;;;4972640;28;20101;-77
2022/02/13 01:03:30;;;;;;;14.48;10.20;;;0.40;99.90;;;;;;4974152;28;20023;-76
2022/02/13 01:05:55;;;;;;;12.82;10.70;;;0.50;99.90;;;;;;4971499;28;20050;-76
2022/02/13 01:08:21;;;;;;;11.85;10.32;;;0.50;99.90;;;;;;4973773;28;20448;-75
2022/02/13 01:10:46;;;;;;;18.13;10.85;;;0.50;99.90;;;;;;4973034;28;20065;-76
2022/02/13 01:13:12;;;;;;;14.65;11.32;;;0.50;99.90;;;;;;4972879;28;20031;-75
2022/02/13 01:15:38;;;;;;;14.77;10.48;;;0.50;99.90;;;;;;4974196;28;20559;-73
2022/02/13 01:18:03;;;;;;;13.77;10.30;;;0.50;99.90;;;;;;4973222;28;20055;-75
2022/02/13 01:20:29;;;;;;;15.73;11.77;;;0.40;99.90;;;;;;4972877;28;20030;-75
2022/02/13 01:22:54;;;;;;;16.73;11.82;;;0.30;99.90;;;;;;4973807;28;20431;-76
2022/02/13 01:25:20;;;;;;;13.43;10.80;;;0.20;99.90;;;;;;4972128;28;20019;-77
2022/02/13 01:27:46;;;;;;;16.70;10.93;;;0.20;99.90;;;;;;4973082;28;20568;-75
2022/02/13 01:30:12;;;;;;;17.60;12.15;;;0.30;99.90;;;;;;4972891;28;20118;-74
2022/02/13 01:32:38;;;;;;;13.73;10.13;;;0.40;99.90;;;;;;4973580;28;20018;-76
2022/02/13 01:35:04;;;;;;;14.73;10.85;;;0.30;99.90;;;;;;4973034;28;20519;-74
2022/02/13 01:37:30;;;;;;;14.98;11.02;;;0.20;99.90;;;;;;4973316;28;20019;-75
2022/02/13 01:39:55;;;;;;;18.30;11.93;;;0.20;99.90;;;;;;4971854;28;20030;-75
2022/02/13 01:42:21;;;;;;;16.23;12.20;;;0.20;99.90;;;;;;4973286;28;20054;-74
2022/02/13 01:44:49;;;;;;;14.80;11.77;;;0.10;99.90;;;;;;4972751;28;20034;-76
2022/02/13 01:47:15;;;;;;;15.63;11.20;;;0.10;99.90;;;;;;4972901;28;20107;-75
2022/02/13 01:49:41;;;;;;;14.50;11.23;;;0.10;99.90;;;;;;4972149;28;20479;-75
2022/02/13 01:52:07;;;;;;;13.80;11.07;;;0.40;99.90;;;;;;4972713;28;20023;-75
2022/02/13 01:54:32;;;;;;;14.40;10.95;;;0.50;99.90;;;;;;4972042;28;20033;-76
2022/02/13 01:56:58;;;;;;;16.08;11.20;;;0.60;99.90;;;;;;4972555;28;20035;-75
2022/02/13 01:59:24;;;;;;;15.30;10.77;;;0.60;99.90;;;;;;4971279;28;20030;-74
2022/02/13 02:01:50;;;;;;;15.63;11.75;;;0.50;99.90;;;;;;4972608;28;20027;-76
2022/02/13 02:04:16;;;;;;;15.00;10.80;;;0.30;99.90;;;;;;4975454;28;20029;-75
2022/02/13 02:06:41;;;;;;;13.95;10.65;;;0.20;99.90;;;;;;4989211;28;20035;-73
2022/02/13 02:09:07;;;;;;;15.63;11.80;;;0.10;99.90;;;;;;4984275;28;20120;-74
2022/02/13 02:11:33;;;;;;;15.07;11.57;;;0.10;99.90;;;;;;4982026;28;20492;-75
2022/02/13 02:13:59;;;;;;;14.45;10.77;;;0.20;99.90;;;;;;4974159;28;20057;-75
2022/02/13 02:16:24;;;;;;;17.00;12.75;;;0.20;99.90;;;;;;4973990;28;20019;-74
2022/02/13 02:18:50;;;;;;;21.20;12.60;;;0.20;99.90;;;;;;4974136;28;20106;-75
2022/02/13 02:21:16;;;;;;;13.85;11.13;;;0.20;99.90;;;;;;4973994;28;20381;-76
2022/02/13 02:23:42;;;;;;;16.15;12.18;;;0.20;99.90;;;;;;4984944;28;20033;-76
2022/02/13 02:26:09;;;;;;;12.70;10.27;;;0.30;99.90;;;;;;4976050;28;20386;-75
2022/02/13 02:28:35;;;;;;;13.63;10.98;;;0.30;99.90;;;;;;4975619;28;20030;-76
2022/02/13 02:31:00;;;;;;;14.30;10.68;;;0.20;99.90;;;;;;4976503;28;20058;-75
2022/02/13 02:33:27;;;;;;;13.48;11.02;;;0.30;99.90;;;;;;4980013;28;20030;-76
2022/02/13 02:35:53;;;;;;;18.52;12.68;;;0.20;99.90;;;;;;4974324;28;20038;-74
2022/02/13 02:38:19;;;;;;;17.02;12.00;;;0.10;99.90;;;;;;4975272;28;20045;-75
2022/02/13 02:40:44;;;;;;;11.73;10.40;;;0.10;99.90;;;;;;4975649;28;20105;-75
2022/02/13 02:43:10;;;;;;;12.50;11.05;;;0.10;99.90;;;;;;4976358;28;20034;-76
2022/02/13 02:45:36;;;;;;;14.85;11.25;;;0.00;99.90;;;;;;4974972;28;20018;-76
2022/02/13 02:48:01;;;;;;;17.05;11.40;;;0.20;99.90;;;;;;4977805;28;20034;-75
2022/02/13 02:50:27;;;;;;;14.85;11.73;;;0.10;99.90;;;;;;4975418;28;20046;-74
2022/02/13 02:52:53;;;;;;;13.40;11.38;;;0.10;99.90;;;;;;4976930;28;20027;-75
2022/02/13 02:55:19;;;;;;;15.80;11.50;;;0.00;99.90;;;;;;4974413;28;20029;-76
2022/02/13 02:57:45;;;;;;;16.65;11.85;;;0.20;99.90;;;;;;4974309;28;20035;-75
2022/02/13 03:00:11;;;;;;;13.98;11.38;;;0.10;99.90;;;;;;4975054;28;20019;-75
2022/02/13 03:02:37;;;;;;;15.00;11.60;;;0.00;99.90;;;;;;4974624;28;20113;-75
2022/02/13 03:05:04;;;;;;;14.70;10.98;;;0.10;99.90;;;;;;4975756;28;20027;-77
2022/02/13 03:07:30;;;;;;;14.50;11.90;;;0.10;99.90;;;;;;4976150;28;20035;-75
2022/02/13 03:09:55;;;;;;;14.40;11.18;;;0.20;99.90;;;;;;4977351;28;20033;-76
2022/02/13 03:12:21;;;;;;;13.10;10.60;;;0.10;99.90;;;;;;4974680;28;20651;-75
2022/02/13 03:14:46;;;;;;;12.85;10.75;;;0.20;99.90;;;;;;4975171;28;20447;-75
2022/02/13 03:17:12;;;;;;;19.95;11.13;;;0.20;99.90;;;;;;4972333;28;20081;-75
2022/02/13 03:19:38;;;;;;;14.30;11.30;;;0.30;99.90;;;;;;4990121;28;20499;-75
2022/02/13 03:22:05;;;;;;;15.25;12.63;;;0.40;99.90;;;;;;4974416;28;20038;-75
2022/02/13 03:24:30;;;;;;;13.40;11.23;;;0.40;99.90;;;;;;4973710;28;20369;-75
2022/02/13 03:26:56;;;;;;;16.13;11.10;;;0.40;99.90;;;;;;4973468;28;20030;-75
2022/02/13 03:29:21;;;;;;;15.48;11.43;;;0.20;99.90;;;;;;4970199;28;20499;-74
2022/02/13 03:31:48;;;;;;;20.45;12.00;;;0.30;99.90;;;;;;4975360;28;20395;-76
2022/02/13 03:34:14;;;;;;;15.88;11.68;;;0.30;99.90;;;;;;4974880;28;20038;-76
2022/02/13 03:36:39;;;;;;;16.30;11.80;;;0.30;99.90;;;;;;4975978;28;20047;-75
2022/02/13 03:39:05;;;;;;;13.57;10.65;;;0.20;99.90;;;;;;4970979;28;20029;-75
2022/02/13 03:41:31;;;;;;;14.07;10.55;;;0.30;99.90;;;;;;4970425;28;20448;-73
2022/02/13 03:43:57;;;;;;;13.75;12.02;;;0.20;99.90;;;;;;4976787;28;20033;-75
2022/02/13 03:46:23;;;;;;;13.35;10.88;;;0.20;99.90;;;;;;4975649;28;20087;-74
2022/02/13 03:48:48;;;;;;;13.70;11.40;;;0.20;99.90;;;;;;4975389;28;20023;-76
2022/02/13 03:51:15;;;;;;;18.63;11.60;;;0.20;99.90;;;;;;4974686;28;20031;-75
2022/02/13 03:53:41;;;;;;;15.57;12.40;;;0.10;99.90;;;;;;4975510;28;20031;-74
2022/02/13 03:56:07;;;;;;;14.65;11.23;;;0.10;99.90;;;;;;4976337;28;20031;-75
2022/02/13 03:58:32;;;;;;;14.27;11.18;;;0.10;99.90;;;;;;4969123;28;20027;-75
2022/02/13 04:00:59;;;;;;;15.68;11.07;;;0.10;99.90;;;;;;4975649;28;20122;-76
2022/02/13 04:03:25;;;;;;;14.25;10.75;;;0.10;99.90;;;;;;4974994;28;20058;-74
2022/02/13 04:05:54;;;;;;;13.98;10.93;;;0.00;99.90;;;;;;4974540;28;20106;-75
2022/02/13 04:08:20;;;;;;;12.48;11.18;;;0.10;99.90;;;;;;4974939;28;20546;-74
2022/02/13 04:10:46;;;;;;;14.30;10.43;;;0.00;99.90;;;;;;4974290;28;20041;-75
2022/02/13 04:13:11;;;;;;;18.33;12.10;;;0.00;99.90;;;;;;4974306;28;20492;-75
2022/02/13 04:15:37;;;;;;;12.80;11.07;;;0.10;99.90;;;;;;4973704;28;20077;-74
2022/02/13 04:18:11;;;;;;;16.30;11.18;;;0.10;99.90;;;;;;4978361;28;20031;-76
2022/02/13 04:20:36;;;;;;;14.98;11.20;;;0.00;99.90;;;;;;4974412;28;20023;-75
2022/02/13 04:23:02;;;;;;;12.95;10.48;;;0.00;99.90;;;;;;4973486;28;20387;-75
2022/02/13 04:25:28;;;;;;;13.48;9.80;;;0.00;99.90;;;;;;4974539;28;20015;-75
2022/02/13 04:27:53;;;;;;;13.02;10.35;;;0.20;99.90;;;;;;4974871;28;20053;-75
2022/02/13 04:30:19;;;;;;;13.88;10.82;;;0.20;99.90;;;;;;4974500;28;20037;-74
2022/02/13 04:32:45;;;;;;;13.48;9.73;;;0.30;99.90;;;;;;4973393;28;20105;-76
2022/02/13 04:35:10;;;;;;;14.20;10.52;;;0.40;99.90;;;;;;4970568;28;20058;-74
2022/02/13 04:37:36;;;;;;;13.55;10.98;;;0.40;99.90;;;;;;4969277;28;20022;-75
2022/02/13 04:40:02;;;;;;;14.60;10.38;;;0.60;99.90;;;;;;4975223;28;20051;-75
2022/02/13 04:42:28;;;;;;;14.60;11.23;;;0.60;99.90;;;;;;4976535;28;20025;-76
2022/02/13 04:44:53;;;;;;;11.82;10.60;;;0.50;99.90;;;;;;4973754;28;20102;-74
2022/02/13 04:47:19;;;;;;;14.32;10.13;;;0.30;99.90;;;;;;4972477;28;20023;-75
2022/02/13 04:49:46;;;;;;;14.30;11.15;;;0.20;99.90;;;;;;4973377;28;20026;-75
2022/02/13 04:52:12;;;;;;;17.50;11.38;;;0.10;99.90;;;;;;4973842;28;20073;-74
2022/02/13 04:54:37;;;;;;;22.58;11.90;;;-0.10;99.90;;;;;;4973259;28;20026;-74
2022/02/13 04:57:03;;;;;;;14.15;11.43;;;0.00;99.90;;;;;;4975155;28;20108;-75
2022/02/13 04:59:35;;;;;;;16.27;11.60;;;0.10;99.90;;;;;;4980110;28;20031;-75
2022/02/13 05:02:01;;;;;;;18.08;11.32;;;0.10;99.90;;;;;;4982289;28;20030;-74
2022/02/13 05:04:27;;;;;;;17.85;11.93;;;0.10;99.90;;;;;;4986923;28;20019;-74
2022/02/13 05:06:52;;;;;;;14.82;11.38;;;0.00;99.90;;;;;;4986773;28;20015;-74
2022/02/13 05:09:18;;;;;;;16.83;11.23;;;-0.10;99.90;;;;;;4983314;28;20123;-74
2022/02/13 05:11:43;;;;;;;14.32;12.63;;;-0.10;99.90;;;;;;4976133;28;20030;-76
2022/02/13 05:14:09;;;;;;;14.20;11.05;;;-0.10;99.90;;;;;;4975305;28;20037;-73
2022/02/13 05:16:35;;;;;;;14.15;11.40;;;-0.20;99.90;;;;;;4973207;28;20023;-74
2022/02/13 05:19:00;;;;;;;13.93;11.90;;;-0.30;99.90;;;;;;4972429;28;20477;-74
2022/02/13 05:21:26;;;;;;;16.77;12.02;;;-0.20;99.90;;;;;;4974682;28;20023;-75
2022/02/13 05:23:52;;;;;;;17.35;11.45;;;-0.20;99.90;;;;;;4973991;28;20025;-77
2022/02/13 05:26:18;;;;;;;14.70;12.05;;;-0.20;99.90;;;;;;4972948;28;20027;-74
2022/02/13 05:28:44;;;;;;;13.43;11.38;;;-0.20;99.90;;;;;;4973437;28;20018;-73
2022/02/13 05:31:10;;;;;;;15.07;11.43;;;-0.30;99.90;;;;;;4973520;28;20043;-75
2022/02/13 05:33:36;;;;;;;14.98;11.18;;;-0.40;99.90;;;;;;4975960;28;20054;-75
2022/02/13 05:36:01;;;;;;;16.20;11.90;;;-0.40;99.90;;;;;;4973260;28;20034;-74
2022/02/13 05:38:27;;;;;;;17.63;12.00;;;-0.40;99.90;;;;;;4973583;28;20074;-75
2022/02/13 05:40:53;;;;;;;13.80;11.40;;;-0.50;99.90;;;;;;4973972;28;20019;-74
2022/02/13 05:43:18;;;;;;;14.38;12.10;;;-0.50;99.90;;;;;;4975455;28;20547;-75
2022/02/13 05:45:44;;;;;;;15.27;10.10;;;-0.50;99.90;;;;;;4973569;28;20034;-74
2022/02/13 05:48:12;;;;;;;14.15;10.60;;;-0.50;99.90;;;;;;4973577;28;20122;-75
2022/02/13 05:50:38;;;;;;;15.40;11.45;;;-0.40;99.90;;;;;;4974181;28;20059;-75
2022/02/13 05:53:05;;;;;;;15.25;11.45;;;-0.40;99.90;;;;;;4972525;28;20054;-75
2022/02/13 05:55:30;;;;;;;13.98;11.20;;;-0.30;99.90;;;;;;4972842;28;20034;-75
2022/02/13 05:57:56;;;;;;;13.98;11.50;;;-0.30;99.90;;;;;;4969409;28;20022;-75
2022/02/13 06:00:21;;;;;;;16.05;12.85;;;-0.30;99.90;;;;;;4974000;28;20037;-76
2022/02/13 06:02:47;;;;;;;15.38;10.27;;;-0.30;99.90;;;;;;4973393;28;20106;-76
2022/02/13 06:05:12;;;;;;;16.20;10.77;;;-0.30;99.90;;;;;;4974133;28;20034;-74
2022/02/13 06:07:39;;;;;;;13.95;11.48;;;-0.30;99.90;;;;;;4972964;28;20030;-75
2022/02/13 06:10:06;;;;;;;11.55;10.15;;;-0.20;99.90;;;;;;4972658;28;20035;-77
2022/02/13 06:12:32;;;;;;;14.50;11.00;;;-0.20;99.90;;;;;;4974490;28;20035;-75
2022/02/13 06:14:58;;;;;;;13.75;11.25;;;-0.10;99.90;;;;;;4973988;28;20057;-77
2022/02/13 06:17:23;;;;;;;16.17;10.73;;;-0.20;99.90;;;;;;4973488;28;20031;-76
2022/02/13 06:19:49;;;;;;;16.90;12.75;;;-0.30;99.90;;;;;;4973596;28;20054;-76
2022/02/13 06:22:14;;;;;;;13.27;11.40;;;-0.20;99.90;;;;;;4972672;28;20023;-74
2022/02/13 06:24:40;;;;;;;15.95;12.68;;;-0.10;99.90;;;;;;4978666;28;20027;-74
2022/02/13 06:27:06;;;;;;;16.58;10.93;;;-0.20;99.90;;;;;;4973841;28;20030;-76
2022/02/13 06:29:31;;;;;;;12.35;10.23;;;0.00;99.90;;;;;;4982438;28;20029;-75
2022/02/13 06:31:57;;;;;;;15.80;10.35;;;0.10;99.90;;;;;;4973076;28;20114;-76
2022/02/13 06:34:23;;;;;;;14.23;9.95;;;0.20;99.90;;;;;;4975571;28;20018;-75
2022/02/13 06:36:49;;;;;;;11.25;9.48;;;0.40;99.90;;;;;;4972539;28;20114;-76
2022/02/13 06:39:14;;;;;;;14.98;10.38;;;0.40;99.90;;;;;;4973287;28;20106;-75
2022/02/13 06:41:40;;;;;;;15.05;10.68;;;0.40;99.90;;;;;;4971196;28;20035;-76
2022/02/13 06:44:05;;;;;;;13.20;11.20;;;0.30;99.90;;;;;;4973629;28;20102;-76
2022/02/13 06:46:31;;;;;;;15.63;10.50;;;0.20;99.90;;;;;;4975440;28;20491;-77
2022/02/13 06:48:56;;;;;;;13.73;10.40;;;0.20;99.90;;;;;;4977334;28;20027;-75
2022/02/13 06:51:22;;;;;;;15.23;12.05;;;0.00;99.90;;;;;;4976185;28;20042;-76
2022/02/13 06:53:48;;;;;;;13.45;10.10;;;-0.10;99.90;;;;;;4977302;28;20027;-76
2022/02/13 06:56:13;;;;;;;16.38;10.60;;;-0.10;99.90;;;;;;4974448;28;20418;-78
2022/02/13 06:58:40;;;;;;;14.82;11.30;;;-0.10;99.90;;;;;;4973437;28;20403;-76
2022/02/13 07:01:09;;;;;;;13.95;10.40;;;-0.10;99.90;;;;;;4971931;28;20699;-77
2022/02/13 07:03:37;;;;;;;16.08;10.90;;;-0.10;99.90;;;;;;4972240;28;20061;-76
2022/02/13 07:06:03;;;;;;;14.13;10.30;;;-0.10;99.90;;;;;;4971453;28;20015;-75
2022/02/13 07:08:31;;;;;;;13.70;11.60;;;0.00;99.90;;;;;;4974967;28;20033;-75
2022/02/13 07:10:56;;;;;;;17.13;11.38;;;0.00;99.90;;;;;;4983145;28;20061;-75
2022/02/13 07:13:22;;;;;;;12.70;11.40;;;0.10;99.90;;;;;;4975936;28;20026;-76
2022/02/13 07:15:47;;;;;;;14.18;10.68;;;0.10;99.90;;;;;;4971261;28;20488;-77
2022/02/13 07:18:13;;;;;;;14.27;10.65;;;0.20;99.90;;;;;;4976091;28;20030;-76
2022/02/13 07:20:39;;;;;;;11.55;9.77;;;0.40;99.90;;;;;;4976172;28;20034;-77
2022/02/13 07:23:05;;;;;;;14.52;10.52;;;0.50;99.90;;;;;;4975194;28;20130;-74
2022/02/13 07:25:30;;;;;;;14.02;9.25;;;0.60;99.90;;;;;;4975666;28;20018;-78
2022/02/13 07:27:56;;;;;;;13.13;10.52;;;0.70;99.90;;;;;;4975955;28;20031;-75
2022/02/13 07:30:21;;;;;;;13.55;10.20;;;0.70;99.90;;;;;;4975555;28;20034;-75
2022/02/13 07:32:47;;;;;;;14.77;9.93;;;0.80;99.90;;;;;;4975353;28;20023;-75
2022/02/13 07:35:14;;;;;;;13.73;10.07;;;0.90;99.90;;;;;;4968848;28;20387;-75
2022/02/13 07:37:40;;;;;;;11.32;9.70;;;1.00;99.90;;;;;;4975635;28;20023;-75
2022/02/13 07:40:07;;;;;;;13.38;9.52;;;1.00;99.90;;;;;;4975518;28;20051;-74
2022/02/13 07:42:32;;;;;;;14.45;10.05;;;1.20;99.90;;;;;;4974653;28;20030;-75
2022/02/13 07:44:58;;;;;;;14.73;9.45;;;1.50;99.90;;;;;;4975450;28;20082;-75
2022/02/13 07:47:24;;;;;;;14.50;9.52;;;1.60;99.90;;;;;;4974972;28;20099;-75
2022/02/13 07:49:50;;;;;;;11.45;9.73;;;1.80;99.90;;;;;;4975125;28;20034;-76
2022/02/13 07:52:16;;;;;;;9.52;8.50;;;1.90;99.90;;;;;;4985264;28;20074;-77
2022/02/13 07:54:41;;;;;;;11.48;9.68;;;1.80;99.90;;;;;;4986679;28;20023;-76
2022/02/13 07:57:07;;;;;;;14.35;10.45;;;1.70;99.90;;;;;;4989650;28;20090;-75
2022/02/13 07:59:33;;;;;;;13.23;9.10;;;1.80;99.90;;;;;;4981070;28;20041;-76
2022/02/13 08:02:00;;;;;;;16.15;9.32;;;2.00;99.90;;;;;;4974866;28;20473;-74
2022/02/13 08:04:26;;;;;;;13.88;10.02;;;2.20;99.90;;;;;;4976555;28;20447;-76
2022/02/13 08:06:52;;;;;;;11.43;9.55;;;2.40;99.90;;;;;;4975550;28;20094;-76
2022/02/13 08:09:17;;;;;;;14.07;10.75;;;2.70;99.90;;;;;;4975531;28;20420;-76
2022/02/13 08:11:43;;;;;;;10.40;9.30;;;2.80;99.90;;;;;;4982208;28;20072;-76
2022/02/13 08:14:08;;;;;;;12.73;9.93;;;2.90;99.90;;;;;;4975043;28;20491;-73
2022/02/13 08:16:34;;;;;;;11.38;9.25;;;3.00;99.90;;;;;;4975375;28;20127;-75
2022/02/13 08:19:00;;;;;;;13.07;9.52;;;3.20;99.90;;;;;;4973296;28;20550;-75
2022/02/13 08:21:26;;;;;;;14.10;10.02;;;3.20;99.90;;;;;;4975426;28;20571;-75
2022/02/13 08:23:51;;;;;;;10.00;8.75;;;3.30;99.90;;;;;;4975525;28;20046;-74
2022/02/13 08:26:19;;;;;;;15.73;9.00;;;3.40;99.90;;;;;;4977384;28;20061;-75
2022/02/13 08:28:45;;;;;;;10.82;9.05;;;3.50;99.90;;;;;;4974387;28;20089;-75
2022/02/13 08:31:13;;;;;;;10.82;8.52;;;3.50;99.90;;;;;;4974015;28;20031;-75
2022/02/13 08:33:39;;;;;;;10.07;8.50;;;3.60;99.90;;;;;;4975287;28;20059;-74
2022/02/13 08:36:05;;;;;;;9.85;8.85;;;3.70;99.90;;;;;;4974441;28;20054;-75
2022/02/13 08:38:31;;;;;;;11.70;8.23;;;3.80;99.90;;;;;;4975042;28;20030;-75
2022/02/13 08:40:56;;;;;;;14.07;9.60;;;3.80;99.90;;;;;;4974133;28;20023;-74
2022/02/13 08:43:22;;;;;;;10.63;8.13;;;3.90;99.90;;;;;;4975004;28;20507;-75
2022/02/13 08:45:50;;;;;;;13.82;8.73;;;3.90;99.90;;;;;;4974606;28;20023;-75
2022/02/13 08:48:18;;;;;;;10.25;8.45;;;4.00;99.90;;;;;;4975971;28;20026;-77
2022/02/13 08:50:44;;;;;;;10.32;8.85;;;4.10;99.90;;;;;;4973875;28;20031;-76
2022/02/13 08:53:10;;;;;;;11.93;7.78;;;4.20;99.90;;;;;;4975567;28;20037;-74
2022/02/13 08:55:37;;;;;;;11.35;8.63;;;4.30;99.90;;;;;;4974274;28;20097;-75
2022/02/13 08:58:03;;;;;;;14.60;8.30;;;4.40;99.90;;;;;;4976051;28;20023;-76
2022/02/13 09:00:31;;;;;;;12.30;8.98;;;4.50;99.90;;;;;;4973130;28;20029;-77
2022/02/13 09:02:58;;;;;;;13.23;9.88;;;4.60;99.90;;;;;;4974534;28;20122;-76
2022/02/13 09:05:24;;;;;;;13.95;8.10;;;4.70;99.90;;;;;;4973888;28;20042;-74
2022/02/13 09:07:49;;;;;;;9.35;7.63;;;4.80;99.90;;;;;;4974402;28;20121;-76
2022/02/13 09:10:15;;;;;;;12.23;8.32;;;4.90;99.90;;;;;;4977555;28;20037;-76
2022/02/13 09:12:43;;;;;;;10.55;9.35;;;4.90;99.90;;;;;;4976683;28;20479;-76
2022/02/13 09:15:10;;;;;;;12.82;8.75;;;5.00;99.90;;;;;;4974488;28;20033;-76
2022/02/13 09:17:35;;;;;;;11.70;7.70;;;5.10;99.90;;;;;;4974227;28;20514;-75
2022/02/13 09:20:02;;;;;;;13.15;8.57;;;5.20;99.90;;;;;;4973340;28;20035;-75
2022/02/13 09:22:27;;;;;;;14.48;9.02;;;5.30;99.90;;;;;;4973750;28;20029;-75
2022/02/13 09:24:53;;;;;;;12.43;7.97;;;5.40;99.90;;;;;;4973301;28;20015;-76
2022/02/13 09:27:18;;;;;;;10.95;8.77;;;5.50;99.90;;;;;;4968369;28;20031;-75
2022/02/13 09:29:45;;;;;;;12.25;8.32;;;5.60;99.90;;;;;;4971951;28;20086;-75
2022/02/13 09:32:11;;;;;;;13.75;8.43;;;5.70;99.90;;;;;;4979593;28;20391;-74
2022/02/13 09:34:36;;;;;;;12.38;8.63;;;5.70;99.90;;;;;;4977869;28;20118;-76
2022/02/13 09:37:02;;;;;;;11.13;8.32;;;5.80;99.90;;;;;;4976849;28;20033;-74
2022/02/13 09:39:29;;;;;;;11.25;8.38;;;6.00;99.90;;;;;;4972460;28;20023;-75
2022/02/13 09:41:55;;;;;;;11.25;8.07;;;6.10;99.90;;;;;;4972950;28;20034;-74
2022/02/13 09:44:21;;;;;;;12.02;8.52;;;6.20;99.90;;;;;;4974387;28;20050;-77
2022/02/13 09:46:47;;;;;;;12.88;8.25;;;6.30;99.90;;;;;;4974088;28;20015;-78
2022/02/13 09:49:19;;;;;;;10.52;9.00;;;6.40;99.90;;;;;;4973197;28;20034;-78
2022/02/13 09:51:45;;;;;;;7.80;7.00;;;6.50;99.90;;;;;;4975287;28;20033;-78
2022/02/13 09:54:11;;;;;;;9.95;6.78;;;6.50;99.90;;;;;;4972996;28;20022;-77
2022/02/13 09:56:36;;;;;;;14.55;8.23;;;6.60;99.90;;;;;;4975326;28;20101;-79
2022/02/13 09:59:09;;;;;;;8.90;7.35;;;6.70;99.90;;;;;;4975119;28;20055;-78
2022/02/13 10:01:44;;;;;;;11.25;7.70;;;6.90;99.90;;;;;;4967692;28;20504;-77
2022/02/13 10:04:12;;;;;;;12.25;7.88;;;6.90;99.90;;;;;;4972415;28;20466;-75
2022/02/13 10:06:38;;;;;;;13.13;7.05;;;7.10;99.90;;;;;;4974099;28;20640;-77
2022/02/13 10:09:05;;;;;;;15.35;8.38;;;7.20;99.90;;;;;;4967128;28;20042;-76
2022/02/13 10:11:33;;;;;;;8.48;7.25;;;7.20;99.90;;;;;;4973202;28;20043;-76
2022/02/13 10:14:07;;;;;;;8.35;7.53;;;7.30;99.90;;;;;;4970467;28;20027;-76
2022/02/13 10:16:59;;;;;;;11.07;8.02;;;7.40;99.90;;;;;;4972647;28;20031;-77
2022/02/13 10:19:28;;;;;;;11.38;7.93;;;7.50;99.90;;;;;;4971218;28;20045;-78
2022/02/13 10:21:58;;;;;;;10.32;7.25;;;7.60;99.90;;;;;;4978039;28;20015;-76
2022/02/13 10:24:31;;;;;;;10.40;8.27;;;7.80;99.90;;;;;;4980893;28;20054;-77
2022/02/13 10:26:57;;;;;;;11.57;7.20;;;7.70;99.90;;;;;;4973423;28;20019;-77
2022/02/13 10:29:27;;;;;;;13.75;7.25;;;8.00;99.90;;;;;;4974720;28;20076;-77
2022/02/13 10:32:13;;;;;;;11.47;7.47;;;8.10;99.90;;;;;;4974464;28;20046;-77
2022/02/13 10:34:39;;;;;;;8.73;7.30;;;8.30;99.90;;;;;;4978517;28;20348;-77
2022/02/13 10:37:05;;;;;;;11.43;6.57;;;8.30;99.90;;;;;;4984939;28;20054;-76
2022/02/13 10:39:42;;;;;;;12.55;6.55;;;8.40;99.90;;;;;;4974023;28;20058;-75
2022/02/13 10:42:10;;;;;;;13.00;5.38;;;8.60;99.90;;;;;;4977681;28;20022;-79
2022/02/13 10:44:36;;;;;;;8.90;5.50;;;8.90;99.90;;;;;;4983384;28;20026;-78
2022/02/13 10:47:02;;;;;;;8.45;4.78;;;9.20;99.90;;;;;;4990241;28;20027;-76
2022/02/13 10:49:29;;;;;;;9.50;5.05;;;9.50;99.90;;;;;;4993966;28;20037;-80
2022/02/13 10:51:54;;;;;;;9.32;5.22;;;9.60;99.90;;;;;;4991199;28;20033;-81
2022/02/13 10:54:20;;;;;;;6.47;4.57;;;9.80;99.90;;;;;;4986909;28;20042;-78
2022/02/13 10:56:45;;;;;;;13.23;5.03;;;9.80;99.90;;;;;;4981402;28;20404;-79
2022/02/13 10:59:13;;;;;;;7.28;4.63;;;10.00;99.90;;;;;;4979980;28;20023;-77
2022/02/13 11:01:41;;;;;;;7.28;5.10;;;10.10;99.90;;;;;;4980268;28;20015;-79
2022/02/13 11:04:08;;;;;;;10.45;5.25;;;10.20;99.90;;;;;;4977318;28;20019;-78
2022/02/13 11:06:36;;;;;;;8.52;4.50;;;10.30;99.90;;;;;;4981281;28;20037;-77
2022/02/13 11:09:02;;;;;;;10.40;5.15;;;10.40;99.70;;;;;;4980763;28;20042;-77
2022/02/13 11:11:28;;;;;;;10.40;5.00;;;10.40;99.20;;;;;;4977177;28;20500;-78
2022/02/13 11:13:56;;;;;;;8.05;4.35;;;10.40;99.10;;;;;;4982518;28;20027;-77
2022/02/13 11:16:37;;;;;;;7.57;4.32;;;10.50;98.90;;;;;;4988511;28;20026;-79
2022/02/13 11:19:09;;;;;;;6.57;4.15;;;10.50;98.90;;;;;;4983259;28;20030;-77
2022/02/13 11:21:35;;;;;;;7.85;4.40;;;10.60;98.40;;;;;;4976408;28;20027;-76
2022/02/13 11:24:02;;;;;;;9.27;5.43;;;10.80;97.80;;;;;;4983923;28;20073;-80
2022/02/13 11:26:42;;;;;;;9.60;4.38;;;10.80;97.40;;;;;;4991919;28;20047;-78
2022/02/13 11:29:12;;;;;;;11.88;4.88;;;10.80;97.40;;;;;;4987344;28;20033;-79
2022/02/13 11:31:49;;;;;;;6.97;3.85;;;10.70;97.40;;;;;;4995129;28;20250;-78
2022/02/13 11:34:35;;;;;;;6.70;4.40;;;10.80;97.10;;;;;;4992949;28;20102;-80
2022/02/13 11:37:19;;;;;;;8.02;5.68;;;10.90;96.90;;;;;;4979232;28;20454;-81
2022/02/13 11:39:45;;;;;;;8.50;4.68;;;11.00;96.40;;;;;;4981127;28;20023;-74
2022/02/13 11:42:21;;;;;;;10.10;4.72;;;11.20;96.00;;;;;;4981380;28;20030;-79
2022/02/13 11:44:58;;;;;;;6.03;4.25;;;11.10;95.80;;;;;;4980138;28;20015;-77
2022/02/13 11:47:35;;;;;;;12.07;5.05;;;11.00;96.00;;;;;;4980749;28;20015;-80
2022/02/13 11:50:04;;;;;;;7.55;5.10;;;11.20;95.60;;;;;;4981067;28;20169;-76
2022/02/13 11:52:31;;;;;;;5.93;3.90;;;11.30;95.10;;;;;;4980971;28;20034;-78
2022/02/13 11:54:57;;;;;;;7.80;3.88;;;11.50;94.10;;;;;;4981349;28;20030;-80
2022/02/13 11:57:32;;;;;;;5.35;3.58;;;11.50;94.10;;;;;;4981360;28;20031;-78
2022/02/13 11:59:58;;;;;;;7.80;3.88;;;11.50;93.80;;;;;;4984098;28;20087;-77
2022/02/13 12:02:36;;;;;;;4.43;3.40;;;11.60;93.30;;;;;;4977124;28;20058;-76
2022/02/13 12:05:09;;;;;;;5.25;3.20;;;11.70;92.20;;;;;;4979724;28;20054;-79
2022/02/13 12:07:38;;;;;;;9.88;4.13;;;11.80;91.80;;;;;;4981743;28;20023;-80
2022/02/13 12:10:04;;;;;;;6.97;3.67;;;11.90;91.20;;;;;;4979895;28;20022;-77
2022/02/13 12:15:55;;;;;;;8.38;3.38;;;11.80;90.70;;;;;;5592876;23;20088;-77
2022/02/13 12:18:21;;;;;;;9.88;3.97;;;11.80;90.70;;;;;;4974423;28;20046;-77
2022/02/13 12:20:48;;;;;;;6.10;4.00;;;11.80;90.50;;;;;;4975544;28;20031;-76
2022/02/13 12:23:15;;;;;;;7.25;3.00;;;11.90;90.20;;;;;;4969889;28;20070;-78
2022/02/13 12:25:46;;;;;;;4.40;2.97;;;11.80;90.00;;;;;;4971090;28;20050;-75
2022/02/13 12:28:12;;;;;;;6.07;3.07;;;12.00;90.10;;;;;;4977263;28;20073;-78
2022/02/13 12:30:53;;;;;;;3.85;2.75;;;12.00;89.50;;;;;;4976887;28;20333;-77
2022/02/13 12:33:22;;;;;;;;;;;12.00;89.20;;;;;;4991680;28;20494;-77
2022/02/13 12:35:49;;;;;;;5.07;3.10;;;12.00;88.50;;;;;;4986832;28;19906;-78
2022/02/13 12:38:15;;;;;;;6.10;2.70;;;12.00;87.60;;;;;;4989749;28;20019;-76
2022/02/13 12:40:45;;;;;;;6.22;3.20;;;12.00;87.20;;;;;;4972831;28;20054;-77